createdAt,value
2018-06-15T00:00:58.283Z,79.83
2018-06-15T00:03:29.951Z,79.86
2018-06-15T00:06:00.855Z,79.73
2018-06-15T00:08:32.828Z,80.94
2018-06-15T00:11:03.968Z,81.17
2018-06-15T00:13:35.068Z,81.28
2018-06-15T00:16:06.267Z,80.42
2018-06-15T00:18:38.908Z,80.89
2018-06-15T00:21:09.857Z,81.86
2018-06-15T00:23:40.811Z,82.25
2018-06-15T00:26:11.861Z,82.66
2018-06-15T00:28:43.754Z,82.53
2018-06-15T00:31:14.807Z,82.54
2018-06-15T00:33:47.458Z,82.88
2018-06-15T00:36:19.210Z,82.93
2018-06-15T00:38:50.497Z,82.64
2018-06-15T00:41:21.881Z,82.21
2018-06-15T00:43:53.760Z,82.29
2018-06-15T00:46:24.945Z,82.40
2018-06-15T00:48:56.139Z,82.15
2018-06-15T00:51:28.054Z,82.19
2018-06-15T00:53:59.441Z,82.50
2018-06-15T00:56:31.042Z,82.39
2018-06-15T00:59:02.866Z,82.55
2018-06-15T01:01:33.918Z,82.76
2018-06-15T01:04:05.958Z,82.77
2018-06-15T01:06:37.541Z,82.89
2018-06-15T01:09:09.975Z,82.82
2018-06-15T01:11:40.785Z,83.53
2018-06-15T01:14:11.698Z,83.43
2018-06-15T01:16:44.018Z,82.95
2018-06-15T01:19:15.656Z,83.25
2018-06-15T01:21:47.327Z,83.11
2018-06-15T01:24:18.382Z,82.78
2018-06-15T01:26:49.414Z,83.23
2018-06-15T01:29:20.703Z,84.41
2018-06-15T01:31:51.587Z,84.21
2018-06-15T01:34:22.577Z,84.83
2018-06-15T01:36:54.370Z,84.80
2018-06-15T01:39:26.610Z,85.14
2018-06-15T01:41:57.406Z,85.50
2018-06-15T01:44:27.830Z,85.82
2018-06-15T01:46:58.651Z,85.67
2018-06-15T01:49:30.111Z,85.23
2018-06-15T01:52:01.109Z,85.51
2018-06-15T01:54:32.554Z,85.87
2018-06-15T01:57:05.591Z,86.19
2018-06-15T01:59:36.907Z,85.97
2018-06-15T02:02:08.123Z,85.94
2018-06-15T02:04:38.889Z,86.04
2018-06-15T02:07:09.950Z,85.60
2018-06-15T02:09:41.928Z,85.83
2018-06-15T02:12:13.526Z,85.56
2018-06-15T02:14:45.065Z,85.93
2018-06-15T02:17:16.361Z,85.90
2018-06-15T02:19:47.449Z,85.83
2018-06-15T02:22:18.588Z,85.85
2018-06-15T02:24:49.733Z,85.23
2018-06-15T02:27:20.177Z,85.46
2018-06-15T02:29:51.628Z,85.26
2018-06-15T02:32:23.123Z,85.71
2018-06-15T02:34:54.317Z,85.65
2018-06-15T02:37:25.297Z,85.34
2018-06-15T02:39:56.430Z,85.34
2018-06-15T02:42:28.272Z,85.07
2018-06-15T02:45:00.187Z,84.61
2018-06-15T02:47:31.529Z,84.96
2018-06-15T02:50:03.949Z,84.81
2018-06-15T02:52:35.825Z,84.61
2018-06-15T02:55:07.065Z,84.37
2018-06-15T02:57:38.393Z,84.41
2018-06-15T03:00:09.465Z,84.35
2018-06-15T03:02:40.651Z,84.67
2018-06-15T03:05:12.354Z,84.49
2018-06-15T03:07:43.484Z,83.89
2018-06-15T03:10:14.700Z,83.87
2018-06-15T03:12:46.704Z,83.98
2018-06-15T03:15:18.732Z,83.65
2018-06-15T03:17:49.868Z,83.78
2018-06-15T03:20:20.592Z,84.10
2018-06-15T03:22:52.009Z,83.69
2018-06-15T03:25:24.039Z,83.54
2018-06-15T03:27:55.340Z,83.90
2018-06-15T03:30:27.837Z,84.00
2018-06-15T03:32:59.854Z,83.54
2018-06-15T03:35:31.376Z,83.98
2018-06-15T03:38:02.594Z,83.12
2018-06-15T03:40:33.784Z,83.37
2018-06-15T03:43:05.067Z,83.16
2018-06-15T03:45:36.345Z,82.73
2018-06-15T03:48:07.556Z,82.35
2018-06-15T03:50:39.624Z,82.44
2018-06-15T03:53:10.881Z,82.28
2018-06-15T03:55:42.953Z,82.22
2018-06-15T03:58:14.179Z,82.16
2018-06-15T04:00:45.991Z,82.33
2018-06-15T04:03:17.223Z,82.00
2018-06-15T04:05:48.921Z,81.93
2018-06-15T04:08:20.283Z,81.23
2018-06-15T04:10:51.611Z,81.00
2018-06-15T04:13:23.702Z,81.02
2018-06-15T04:15:55.595Z,80.85
2018-06-15T04:18:26.758Z,80.53
2018-06-15T04:20:58.087Z,80.75
2018-06-15T04:23:29.598Z,80.02
2018-06-15T04:26:01.051Z,80.10
2018-06-15T04:28:32.098Z,79.43
2018-06-15T04:31:03.845Z,79.31
2018-06-15T04:33:36.035Z,78.89
2018-06-15T04:36:07.262Z,78.64
2018-06-15T04:38:38.322Z,78.01
2018-06-15T04:41:09.488Z,77.41
2018-06-15T04:43:40.821Z,76.40
2018-06-15T04:46:12.472Z,76.19
2018-06-15T04:48:44.711Z,76.25
2018-06-15T04:51:15.942Z,75.34
2018-06-15T04:53:47.159Z,75.83
2018-06-15T04:56:18.469Z,75.57
2018-06-15T04:58:50.752Z,75.30
2018-06-15T05:01:22.313Z,74.47
2018-06-15T05:03:53.265Z,74.02
2018-06-15T05:06:24.277Z,73.79
2018-06-15T05:08:56.226Z,73.88
2018-06-15T05:11:27.799Z,72.91
2018-06-15T05:14:00.253Z,72.45
2018-06-15T05:16:31.755Z,71.80
2018-06-15T05:19:03.374Z,72.11
2018-06-15T05:21:34.757Z,71.11
2018-06-15T05:24:06.253Z,70.45
2018-06-15T05:26:37.589Z,69.47
2018-06-15T05:29:09.027Z,69.62
2018-06-15T05:31:40.732Z,68.60
2018-06-15T05:34:11.781Z,68.72
2018-06-15T05:36:42.673Z,67.66
2018-06-15T05:39:14.333Z,67.11
2018-06-15T05:41:45.443Z,66.92
2018-06-15T05:44:17.245Z,66.03
2018-06-15T05:46:48.790Z,65.48
2018-06-15T05:49:20.765Z,64.51
2018-06-15T05:51:51.756Z,64.41
2018-06-15T05:54:22.606Z,63.40
2018-06-15T05:56:53.804Z,62.92
2018-06-15T05:59:24.764Z,62.06
2018-06-15T06:01:56.104Z,61.45
2018-06-15T06:04:26.930Z,60.82
2018-06-15T06:06:59.583Z,60.40
2018-06-15T06:09:30.862Z,60.50
2018-06-15T06:12:01.978Z,59.94
2018-06-15T06:14:33.209Z,58.90
2018-06-15T06:17:04.437Z,59.09
2018-06-15T06:19:36.012Z,57.53
2018-06-15T06:22:07.993Z,54.13
2018-06-15T06:24:40.881Z,51.54
2018-06-15T06:27:12.861Z,48.96
2018-06-15T06:29:45.522Z,47.66
2018-06-15T06:32:17.058Z,45.74
2018-06-15T06:34:48.790Z,45.16
2018-06-15T06:37:27.374Z,44.30
2018-06-15T06:39:59.916Z,42.95
2018-06-15T06:42:30.635Z,41.84
2018-06-15T06:45:02.783Z,41.86
2018-06-15T06:47:35.065Z,41.47
2018-06-15T06:50:06.864Z,42.32
2018-06-15T06:52:39.090Z,41.42
2018-06-15T06:55:10.681Z,40.43
2018-06-15T06:57:42.081Z,41.67
2018-06-15T07:00:14.422Z,40.57
2018-06-15T07:02:45.591Z,39.19
2018-06-15T07:05:16.476Z,38.30
2018-06-15T07:07:48.530Z,38.28
2018-06-15T07:10:20.796Z,38.03
2018-06-15T07:12:51.861Z,37.54
2018-06-15T07:15:22.170Z,36.28
2018-06-15T07:17:54.759Z,36.55
2018-06-15T07:20:25.621Z,36.77
2018-06-15T07:22:57.369Z,36.97
2018-06-15T07:25:29.771Z,39.42
2018-06-15T07:28:01.861Z,41.27
2018-06-15T07:30:33.678Z,40.75
2018-06-15T07:33:06.522Z,41.90
2018-06-15T07:35:38.814Z,42.63
2018-06-15T07:38:10.055Z,44.11
2018-06-15T07:40:41.385Z,43.80
2018-06-15T07:43:12.629Z,40.40
2018-06-15T07:45:44.130Z,40.19
2018-06-15T07:48:15.864Z,36.46
2018-06-15T07:50:47.457Z,35.64
2018-06-15T07:53:20.143Z,36.60
2018-06-15T07:55:51.740Z,36.87
2018-06-15T07:58:24.302Z,37.95
2018-06-15T08:00:55.631Z,38.55
2018-06-15T08:03:27.690Z,36.37
2018-06-15T08:05:59.094Z,35.22
2018-06-15T08:08:30.346Z,36.24
2018-06-15T08:11:01.751Z,38.90
2018-06-15T08:13:33.802Z,37.80
2018-06-15T08:16:04.405Z,34.50
2018-06-15T08:18:35.527Z,34.72
2018-06-15T08:21:07.344Z,37.25
2018-06-15T08:23:39.400Z,39.00
2018-06-15T08:26:10.448Z,38.99
2018-06-15T08:28:43.227Z,39.75
2018-06-15T08:31:15.078Z,39.58
2018-06-15T08:33:46.973Z,38.77
2018-06-15T08:36:18.263Z,39.13
2018-06-15T08:38:49.224Z,37.55
2018-06-15T08:41:20.629Z,36.79
2018-06-15T08:43:52.835Z,35.72
2018-06-15T08:46:24.923Z,36.78
2018-06-15T08:48:56.219Z,38.24
2018-06-15T08:51:28.601Z,37.02
2018-06-15T08:54:00.936Z,38.07
2018-06-15T08:56:33.441Z,38.59
2018-06-15T08:59:05.389Z,38.65
2018-06-15T09:01:36.529Z,38.84
2018-06-15T09:04:07.945Z,38.94
2018-06-15T09:06:39.310Z,38.27
2018-06-15T09:09:10.637Z,39.43
2018-06-15T09:11:42.256Z,39.87
2018-06-15T09:14:13.579Z,39.08
2018-06-15T09:16:45.912Z,38.29
2018-06-15T09:19:17.711Z,36.95
2018-06-15T09:21:49.020Z,36.21
2018-06-15T09:24:20.868Z,36.07
2018-06-15T09:26:51.845Z,36.23
2018-06-15T09:29:24.342Z,33.63
2018-06-15T09:31:57.226Z,34.10
2018-06-15T09:34:28.721Z,34.45
2018-06-15T09:37:01.307Z,33.83
2018-06-15T09:39:33.580Z,35.59
2018-06-15T09:42:04.894Z,36.45
2018-06-15T09:44:36.281Z,37.64
2018-06-15T09:47:07.829Z,36.96
2018-06-15T09:49:39.928Z,37.40
2018-06-15T09:52:11.074Z,38.83
2018-06-15T09:54:42.575Z,38.92
2018-06-15T09:57:14.078Z,37.72
2018-06-15T09:59:45.821Z,36.16
2018-06-15T10:02:17.003Z,35.69
2018-06-15T10:04:49.047Z,34.07
2018-06-15T10:07:22.069Z,34.65
2018-06-15T10:09:54.403Z,35.70
2018-06-15T10:12:27.427Z,37.57
2018-06-15T10:14:59.492Z,37.67
2018-06-15T10:17:32.778Z,38.35
2018-06-15T10:20:04.639Z,36.37
2018-06-15T10:22:38.555Z,36.26
2018-06-15T10:25:11.265Z,34.27
2018-06-15T10:27:43.433Z,32.11
2018-06-15T10:30:15.519Z,34.04
2018-06-15T10:32:48.879Z,33.05
2018-06-15T10:35:21.059Z,34.54
2018-06-15T10:37:53.136Z,34.63
2018-06-15T10:40:25.210Z,35.67
2018-06-15T10:42:56.750Z,36.90
2018-06-15T10:45:28.096Z,35.91
2018-06-15T10:48:00.672Z,34.84
2018-06-15T10:50:32.422Z,35.06
2018-06-15T10:53:04.337Z,36.01
2018-06-15T10:55:35.704Z,35.84
2018-06-15T10:58:07.065Z,36.86
2018-06-15T11:00:38.353Z,36.20
2018-06-15T11:03:10.919Z,36.22
2018-06-15T11:05:42.432Z,35.29
2018-06-15T11:08:13.900Z,36.16
2018-06-15T11:10:45.959Z,36.86
2018-06-15T11:13:17.317Z,37.30
2018-06-15T11:15:48.548Z,38.25
2018-06-15T11:18:20.628Z,37.91
2018-06-15T11:20:52.800Z,37.85
2018-06-15T11:23:23.849Z,35.71
2018-06-15T11:25:54.956Z,35.61
2018-06-15T11:28:27.906Z,34.89
2018-06-15T11:31:00.718Z,34.44
2018-06-15T11:33:33.848Z,34.27
2018-06-15T11:36:05.271Z,34.55
2018-06-15T11:38:37.814Z,33.46
2018-06-15T11:41:11.895Z,31.30
2018-06-15T11:43:44.229Z,31.88
2018-06-15T11:46:15.804Z,32.47
2018-06-15T11:48:48.863Z,32.18
2018-06-15T11:51:20.287Z,30.94
2018-06-15T11:53:51.553Z,30.68
2018-06-15T11:56:22.941Z,31.59
2018-06-15T11:58:55.123Z,32.45
2018-06-15T12:01:27.057Z,32.64
2018-06-15T12:03:58.323Z,32.21
2018-06-15T12:06:30.466Z,32.51
2018-06-15T12:09:01.947Z,30.74
2018-06-15T12:11:38.015Z,29.91
2018-06-15T12:14:09.680Z,28.46
2018-06-15T12:16:42.312Z,28.92
2018-06-15T12:19:15.930Z,30.06
2018-06-15T12:21:49.876Z,31.74
2018-06-15T12:24:22.973Z,33.13
2018-06-15T12:26:56.801Z,34.33
2018-06-15T12:29:28.433Z,33.18
2018-06-15T12:31:59.904Z,33.23
2018-06-15T12:34:32.024Z,32.44
2018-06-15T12:37:05.871Z,33.62
2018-06-15T12:39:38.202Z,34.40
2018-06-15T12:42:09.473Z,33.90
2018-06-15T12:44:40.719Z,33.57
2018-06-15T12:47:11.939Z,32.53
2018-06-15T12:49:42.567Z,30.75
2018-06-15T12:52:14.515Z,29.26
2018-06-15T12:54:46.358Z,30.28
2018-06-15T12:57:17.895Z,29.64
2018-06-15T12:59:49.156Z,30.25
2018-06-15T13:02:20.486Z,31.35
2018-06-15T13:04:51.871Z,32.86
2018-06-15T13:07:23.479Z,33.15
2018-06-15T13:09:55.151Z,32.19
2018-06-15T13:12:27.663Z,32.38
2018-06-15T13:14:58.728Z,32.98
2018-06-15T13:17:31.004Z,31.57
2018-06-15T13:20:01.529Z,31.91
2018-06-15T13:22:32.783Z,30.71
2018-06-15T13:25:03.991Z,30.72
2018-06-15T13:27:35.328Z,29.89
2018-06-15T13:30:06.480Z,30.03
2018-06-15T13:32:38.317Z,29.18
2018-06-15T13:35:10.324Z,29.36
2018-06-15T13:37:41.769Z,29.55
2018-06-15T13:40:13.182Z,30.86
2018-06-15T13:42:44.434Z,31.49
2018-06-15T13:45:17.242Z,31.02
2018-06-15T13:47:49.186Z,31.00
2018-06-15T13:50:21.882Z,30.72
2018-06-15T13:52:53.471Z,30.84
2018-06-15T13:55:25.742Z,29.63
2018-06-15T13:57:57.215Z,30.17
2018-06-15T14:00:29.451Z,30.15
2018-06-15T14:03:00.878Z,30.31
2018-06-15T14:05:33.157Z,29.84
2018-06-15T14:08:04.539Z,30.71
2018-06-15T14:10:35.627Z,30.86
2018-06-15T14:13:07.106Z,30.56
2018-06-15T14:15:38.831Z,29.75
2018-06-15T14:18:12.557Z,29.48
2018-06-15T14:20:44.795Z,31.18
2018-06-15T14:23:16.119Z,31.14
2018-06-15T14:25:47.919Z,31.71
2018-06-15T14:28:19.300Z,32.00
2018-06-15T14:30:49.678Z,32.51
2018-06-15T14:33:20.692Z,34.68
2018-06-15T14:35:52.566Z,35.15
2018-06-15T14:38:24.387Z,35.15
2018-06-15T14:40:55.563Z,34.89
2018-06-15T14:43:27.074Z,34.47
2018-06-15T14:45:59.769Z,33.69
2018-06-15T14:48:31.593Z,34.98
2018-06-15T14:51:03.941Z,35.46
2018-06-15T14:53:35.331Z,35.81
2018-06-15T14:56:06.634Z,36.57
2018-06-15T14:58:38.161Z,36.95
2018-06-15T15:01:10.362Z,36.38
2018-06-15T15:03:42.818Z,36.58
2018-06-15T15:06:14.228Z,37.38
2018-06-15T15:08:47.926Z,37.15
2018-06-15T15:11:20.197Z,36.05
2018-06-15T15:13:51.893Z,35.82
2018-06-15T15:16:24.529Z,36.03
2018-06-15T15:19:01.055Z,34.44
2018-06-15T15:21:33.169Z,36.89
2018-06-15T15:24:08.576Z,36.04
2018-06-15T15:26:39.750Z,35.12
2018-06-15T15:29:11.924Z,35.76
2018-06-15T15:31:44.520Z,36.65
2018-06-15T15:34:15.530Z,36.68
2018-06-15T15:36:46.688Z,36.57
2018-06-15T15:39:18.093Z,36.85
2018-06-15T15:41:49.448Z,36.38
2018-06-15T15:44:20.785Z,37.05
2018-06-15T15:46:52.273Z,36.81
2018-06-15T15:49:24.134Z,36.37
2018-06-15T15:51:56.239Z,36.24
2018-06-15T15:54:27.544Z,37.06
2018-06-15T15:57:00.480Z,36.26
2018-06-15T15:59:32.179Z,36.32
2018-06-15T16:02:04.052Z,36.83
2018-06-15T16:04:35.728Z,36.85
2018-06-15T16:07:08.146Z,36.37
2018-06-15T16:09:40.002Z,36.76
2018-06-15T16:12:12.506Z,36.33
2018-06-15T16:14:44.514Z,36.88
2018-06-15T16:17:16.000Z,37.74
2018-06-15T16:19:46.800Z,37.39
2018-06-15T16:22:18.010Z,37.21
2018-06-15T16:24:49.306Z,37.32
2018-06-15T16:27:21.305Z,37.58
2018-06-15T16:29:53.147Z,39.13
2018-06-15T16:32:24.502Z,37.89
2018-06-15T16:34:56.881Z,37.84
2018-06-15T16:37:29.348Z,38.58
2018-06-15T16:40:01.123Z,37.66
2018-06-15T16:42:32.957Z,38.84
2018-06-15T16:45:04.619Z,38.89
2018-06-15T16:47:37.736Z,38.75
2018-06-15T16:50:08.828Z,38.88
2018-06-15T16:52:40.002Z,39.28
2018-06-15T16:55:11.131Z,39.53
2018-06-15T16:57:43.013Z,39.09
2018-06-15T17:00:14.295Z,39.28
2018-06-15T17:02:45.825Z,39.82
2018-06-15T17:05:17.247Z,39.05
2018-06-15T17:07:48.385Z,39.67
2018-06-15T17:10:19.427Z,40.59
2018-06-15T17:12:50.904Z,40.72
2018-06-15T17:15:21.737Z,40.43
2018-06-15T17:17:53.264Z,41.41
2018-06-15T17:20:24.399Z,41.23
2018-06-15T17:22:55.764Z,40.93
2018-06-15T17:25:26.310Z,41.48
2018-06-15T17:27:56.877Z,41.76
2018-06-15T17:30:28.987Z,41.62
2018-06-15T17:33:01.153Z,41.73
2018-06-15T17:38:03.430Z,42.64
2018-06-15T17:40:34.638Z,42.85
2018-06-15T17:43:06.343Z,43.04
2018-06-15T17:45:37.740Z,42.98
2018-06-15T17:48:09.051Z,43.17
2018-06-15T17:50:40.315Z,43.34
2018-06-15T17:53:12.789Z,43.35
2018-06-15T17:55:43.807Z,44.48
2018-06-15T17:58:15.106Z,44.08
2018-06-15T18:00:46.529Z,44.31
2018-06-15T18:03:17.887Z,45.94
2018-06-15T18:05:49.989Z,46.15
2018-06-15T18:08:21.931Z,46.41
2018-06-15T18:10:54.740Z,46.61
2018-06-15T18:13:26.991Z,46.93
2018-06-15T18:15:58.522Z,46.59
2018-06-15T18:18:30.347Z,46.60
2018-06-15T18:21:02.224Z,46.60
2018-06-15T18:23:33.848Z,46.81
2018-06-15T18:26:06.207Z,47.42
2018-06-15T18:28:38.054Z,47.76
2018-06-15T18:31:08.885Z,47.75
2018-06-15T18:33:40.234Z,48.87
2018-06-15T18:36:11.334Z,48.62
2018-06-15T18:38:43.494Z,49.45
2018-06-15T18:41:15.168Z,49.30
2018-06-15T18:43:47.835Z,49.73
2018-06-15T18:46:20.685Z,50.15
2018-06-15T18:48:53.615Z,50.40
2018-06-15T18:51:24.796Z,50.55
2018-06-15T18:53:56.321Z,51.19
2018-06-15T18:56:29.402Z,52.14
2018-06-15T18:59:02.387Z,52.32
2018-06-15T19:01:37.456Z,52.53
2018-06-15T19:04:09.819Z,52.75
2018-06-15T19:06:41.279Z,52.83
2018-06-15T19:09:13.704Z,53.10
2018-06-15T19:11:46.209Z,54.02
2018-06-15T19:14:19.314Z,53.57
2018-06-15T19:16:52.828Z,53.86
2018-06-15T19:19:25.619Z,53.70
2018-06-15T19:21:58.258Z,53.99
2018-06-15T19:24:30.335Z,53.98
2018-06-15T19:27:03.142Z,54.13
2018-06-15T19:29:35.623Z,53.56
2018-06-15T19:32:09.625Z,54.29
2018-06-15T19:34:43.085Z,54.42
2018-06-15T19:37:15.675Z,54.84
2018-06-15T19:39:49.669Z,55.21
2018-06-15T19:42:22.418Z,55.46
2018-06-15T19:44:56.557Z,56.55
2018-06-15T19:47:31.650Z,56.75
2018-06-15T19:50:04.439Z,56.91
2018-06-15T19:52:36.569Z,56.38
2018-06-15T19:55:09.019Z,56.87
2018-06-15T19:57:41.519Z,57.78
2018-06-15T20:00:15.533Z,58.21
2018-06-15T20:02:48.967Z,58.67
2018-06-15T20:05:23.225Z,58.60
2018-06-15T20:07:56.058Z,58.58
2018-06-15T20:10:29.287Z,57.49
2018-06-15T20:13:03.291Z,56.87
2018-06-15T20:15:36.702Z,56.65
2018-06-15T20:18:09.583Z,56.50
2018-06-15T20:20:44.170Z,56.24
2018-06-15T20:23:17.136Z,56.13
2018-06-15T20:25:50.316Z,56.47
2018-06-15T20:28:28.341Z,56.82
2018-06-15T20:31:06.686Z,57.26
2018-06-15T20:33:40.333Z,57.13
2018-06-15T20:36:13.146Z,57.61
2018-06-15T20:38:48.537Z,57.76
2018-06-15T20:41:21.243Z,58.31
2018-06-15T20:43:54.967Z,58.90
2018-06-15T20:46:27.839Z,58.87
2018-06-15T20:49:00.868Z,59.64
2018-06-15T20:51:34.976Z,59.47
2018-06-15T20:54:08.426Z,59.89
2018-06-15T20:56:40.955Z,60.09
2018-06-15T20:59:13.205Z,60.66
2018-06-15T21:01:46.677Z,61.42
2018-06-15T21:04:19.427Z,62.63
2018-06-15T21:06:52.263Z,63.50
2018-06-15T21:09:24.291Z,64.50
2018-06-15T21:11:56.906Z,64.71
2018-06-15T21:14:29.931Z,65.32
2018-06-15T21:17:01.760Z,66.15
2018-06-15T21:19:33.360Z,66.24
2018-06-15T21:22:06.712Z,65.88
2018-06-15T21:24:40.097Z,66.39
2018-06-15T21:27:12.078Z,66.88
2018-06-15T21:29:43.666Z,67.42
2018-06-15T21:32:16.674Z,66.92
2018-06-15T21:34:49.618Z,67.12
2018-06-15T21:37:22.095Z,67.13
2018-06-15T21:39:54.120Z,67.24
2018-06-15T21:42:26.217Z,67.67
2018-06-15T21:44:58.176Z,67.86
2018-06-15T21:47:30.594Z,68.04
2018-06-15T21:50:02.729Z,68.19
2018-06-15T21:52:35.049Z,67.49
2018-06-15T21:55:06.696Z,67.62
2018-06-15T21:57:38.046Z,67.78
2018-06-15T22:00:10.270Z,68.02
2018-06-15T22:02:41.872Z,68.77
2018-06-15T22:05:12.700Z,69.05
2018-06-15T22:07:44.473Z,69.04
2018-06-15T22:10:15.326Z,69.91
2018-06-15T22:12:46.679Z,70.51
2018-06-15T22:15:17.843Z,70.45
2018-06-15T22:17:49.271Z,70.76
2018-06-15T22:20:21.745Z,70.78
2018-06-15T22:22:53.396Z,70.16
2018-06-15T22:25:24.652Z,70.26
2018-06-15T22:27:55.800Z,70.07
2018-06-15T22:30:27.209Z,70.50
2018-06-15T22:32:58.762Z,70.19
2018-06-15T22:35:31.426Z,71.05
2018-06-15T22:38:02.615Z,70.86
2018-06-15T22:40:34.032Z,71.36
2018-06-15T22:43:06.979Z,71.89
2018-06-15T22:45:38.540Z,72.23
2018-06-15T22:48:10.391Z,72.41
2018-06-15T22:50:41.672Z,72.50
2018-06-15T22:53:13.424Z,72.67
2018-06-15T22:55:44.556Z,72.93
2018-06-15T22:58:15.745Z,73.14
2018-06-15T23:00:46.882Z,73.48
2018-06-15T23:03:18.857Z,73.40
2018-06-15T23:05:51.147Z,73.53
2018-06-15T23:08:22.823Z,73.89
2018-06-15T23:10:54.193Z,73.39
2018-06-15T23:13:25.418Z,73.79
2018-06-15T23:15:56.830Z,74.07
2018-06-15T23:18:27.807Z,73.83
2018-06-15T23:20:59.208Z,73.87
2018-06-15T23:23:30.709Z,73.86
2018-06-15T23:26:01.997Z,73.73
2018-06-15T23:28:33.185Z,73.78
2018-06-15T23:31:03.910Z,73.42
2018-06-15T23:33:35.978Z,73.62
2018-06-15T23:36:07.311Z,74.17
2018-06-15T23:38:38.349Z,74.48
2018-06-15T23:41:09.813Z,74.60
2018-06-15T23:43:41.410Z,74.90
2018-06-15T23:46:12.534Z,75.14
2018-06-15T23:48:44.386Z,75.38
2018-06-15T23:51:16.130Z,75.58
2018-06-15T23:53:48.589Z,75.48
2018-06-15T23:56:18.993Z,75.23
2018-06-15T23:58:50.035Z,75.56
